ADDS METAR Data INFO
IDs: Format: Raw Decoded Include TAF

Data at: 2258 UTC 22 Jun 2018

KFIN 222250Z 20009KT 7SM SCT065 28/25 A2992
KFIN 222150Z VRB03KT 7SM SCT048 27/25 A2992
KFIN 222050Z VRB04KT 7SM BKN050 27/24 A2991
KFIN 221950Z 22013G21KT 7SM BKN047 32/23 A2992
KFIN 221850Z 24006KT 7SM SCT042 33/23 A2992
KFIN 221750Z 26005KT 7SM SCT044 33/23 A2994
KFIN 221650Z 26008KT 7SM SCT037 32/24 A2995
KFIN 221550Z 28008KT 7SM SCT027 31/24 A2996
KFIN 221450Z 30006KT 7SM SCT015 30/25 A2997
KFIN 221350Z 26003KT 7SM SKC 27/25 A2998
KFIN 221250Z 26005KT 7SM SKC 26/25 A2998
KFIN 221150Z 26005KT 7SM SKC 25/24 A2996
KFIN 221050Z 25003KT 7SM SKC 25/24 A2994
KFIN 220950Z 24003KT 7SM SKC 25/24 A2992
KFIN 220935Z AUTO 23003KT 10SM CLR 25/24 A2991 RMK AO2 T02500242
KFIN 220855Z AUTO 23004KT 10SM CLR 25/25 A2990 RMK AO2 T02500245
KFIN 220835Z AUTO 23003KT 7SM CLR 25/25 A2990 RMK AO2 T02500245
KFIN 220815Z AUTO 23004KT 10SM CLR 25/25 A2989 RMK AO2 T02500245
KFIN 220755Z AUTO 23005KT 10SM CLR 25/25 A2989 RMK AO2 T02500245
KFIN 220735Z AUTO 23004KT 7SM CLR 25/25 A2989 RMK AO2 T02500245
KFIN 220715Z AUTO 21003KT 7SM CLR 25/25 A2989 RMK AO2 T02500246
KFIN 220655Z AUTO 22004KT 10SM CLR 25/25 A2989 RMK AO2 T02520247
KFIN 220635Z AUTO 23003KT 10SM CLR 25/25 A2989 RMK AO2 T02520247
KFIN 220615Z AUTO 23003KT 10SM CLR 25/25 A2990 RMK AO2 T02520248
KFIN 220555Z AUTO 24003KT 7SM CLR 25/25 A2990 RMK AO2 T02510247 10252 20246 403300227
KFIN 220535Z AUTO 00000KT 7SM CLR 25/25 A2990 RMK AO2 T02500247
KFIN 220515Z AUTO 23003KT 5SM BR CLR 25/25 A2992 RMK AO2 T02500246
KFIN 220455Z AUTO 21004KT 7SM CLR 25/25 A2992 RMK AO2 T02500246
KFIN 220435Z AUTO 23003KT 7SM CLR 25/25 A2993 RMK AO2 T02490245
KFIN 220415Z AUTO 20004KT 7SM CLR 25/25 A2993 RMK AO2 T02480245
KFIN 220355Z AUTO 00000KT 7SM CLR 25/24 A2993 RMK AO2 T02470242
KFIN 220335Z AUTO 20003KT 10SM CLR 25/24 A2993 RMK AO2 T02500243
KFIN 220315Z AUTO 00000KT 10SM CLR 25/24 A2993 RMK AO2 T02500243
KFIN 220255Z AUTO 23003KT 10SM SCT110 25/24 A2993 RMK AO2 T02500242
KFIN 220235Z AUTO 00000KT 10SM -RA BKN110 25/24 A2994 RMK AO2 T02500241
KFIN 220215Z AUTO 00000KT 10SM SCT110 25/24 A2993 RMK AO2 T02510241
KFIN 220155Z AUTO 00000KT 10SM SCT110 25/24 A2993 RMK AO2 T02510240
KFIN 220135Z AUTO 24004KT 10SM BKN110 25/24 A2993 RMK AO2 T02510239
KFIN 220115Z AUTO 25006KT 10SM BKN110 25/24 A2992 RMK AO2 T02500236
KFIN 220055Z AUTO 27006KT 10SM CLR 25/24 A2991 RMK AO2 T02490235
KFIN 220035Z AUTO 26007KT 10SM CLR 25/24 A2990 RMK AO2 T02500235
KFIN 220015Z AUTO 26009KT 10SM CLR 25/23 A2990 RMK AO2 T02500233
KFIN 212355Z AUTO 25007KT 10SM CLR 25/23 A2989 RMK AO2 P0001 60125 T02460233 10284 20227
KFIN 212250Z 24004KT 7SM BKN050 24/23 A2988
KFIN 212150Z 20004KT 7SM SCT060 23/23 A2987
KFIN 212050Z 26006KT 7SM SCT070 23/22 A2989
KFIN 211950Z 27008KT 7SM SCT039 23/22 A2991
KFIN 211850Z 00000KT 2SM RA OVC007 24/23 A2997
KFIN 211830Z 07015G25KT 1SM +RA OVC010 25/23 A2996
KFIN 211750Z 23017G30KT 4SM RA SCT015 BKN034 28/23 A2990
KFIN 211650Z 26005KT 7SM SCT030 32/26 A2990
KFIN 211550Z 25005KT 7SM BKN024 BKN031 32/26 A2991
KFIN 211450Z 24007KT 7SM SCT018 31/26 A2992
KFIN 211350Z 25005KT 7SM BKN012 BKN017 29/26 A2992
KFIN 211250Z 23005KT 7SM BKN005 OVC015 26/25 A2993
KFIN 211150Z 22004KT 7SM OVC011 25/24 A2992